sensor_id;sensor_type;location;lat;lon;timestamp;temperature;humidity
20066;DHT22;10193;48.884;9.182;2023-11-18T00:01:20;7.80;88.70
20066;DHT22;10193;48.884;9.182;2023-11-18T00:03:47;7.70;88.70
20066;DHT22;10193;48.884;9.182;2023-11-18T00:06:14;7.60;88.70
20066;DHT22;10193;48.884;9.182;2023-11-18T00:08:40;7.60;88.70
20066;DHT22;10193;48.884;9.182;2023-11-18T00:11:07;7.50;88.70
20066;DHT22;10193;48.884;9.182;2023-11-18T00:13:37;7.40;88.90
20066;DHT22;10193;48.884;9.182;2023-11-18T00:16:05;7.40;89.20
20066;DHT22;10193;48.884;9.182;2023-11-18T00:18:31;7.40;89.30
20066;DHT22;10193;48.884;9.182;2023-11-18T00:20:58;7.30;89.30
20066;DHT22;10193;48.884;9.182;2023-11-18T00:23:25;7.30;89.30
20066;DHT22;10193;48.884;9.182;2023-11-18T00:25:54;7.30;89.40
20066;DHT22;10193;48.884;9.182;2023-11-18T00:28:21;7.20;89.30
20066;DHT22;10193;48.884;9.182;2023-11-18T00:30:49;7.20;89.20
20066;DHT22;10193;48.884;9.182;2023-11-18T00:33:16;7.10;89.20
20066;DHT22;10193;48.884;9.182;2023-11-18T00:35:43;7.10;89.20
20066;DHT22;10193;48.884;9.182;2023-11-18T00:38:11;7.10;89.40
20066;DHT22;10193;48.884;9.182;2023-11-18T00:40:37;7.10;89.70
20066;DHT22;10193;48.884;9.182;2023-11-18T00:43:04;7.00;90.00
20066;DHT22;10193;48.884;9.182;2023-11-18T00:45:31;7.00;90.00
20066;DHT22;10193;48.884;9.182;2023-11-18T00:47:59;7.00;90.10
20066;DHT22;10193;48.884;9.182;2023-11-18T00:50:25;7.00;90.20
20066;DHT22;10193;48.884;9.182;2023-11-18T00:52:52;7.00;90.20
20066;DHT22;10193;48.884;9.182;2023-11-18T00:55:19;7.00;90.30
20066;DHT22;10193;48.884;9.182;2023-11-18T00:57:46;7.00;90.50
20066;DHT22;10193;48.884;9.182;2023-11-18T01:00:14;7.00;90.60
20066;DHT22;10193;48.884;9.182;2023-11-18T01:02:42;7.00;90.80
20066;DHT22;10193;48.884;9.182;2023-11-18T01:05:10;7.00;90.90
20066;DHT22;10193;48.884;9.182;2023-11-18T01:07:37;7.00;91.10
20066;DHT22;10193;48.884;9.182;2023-11-18T01:10:04;7.10;91.30
20066;DHT22;10193;48.884;9.182;2023-11-18T01:12:31;7.10;91.40
20066;DHT22;10193;48.884;9.182;2023-11-18T01:14:58;7.10;91.50
20066;DHT22;10193;48.884;9.182;2023-11-18T01:17:25;7.20;91.60
20066;DHT22;10193;48.884;9.182;2023-11-18T01:19:51;7.20;91.60
20066;DHT22;10193;48.884;9.182;2023-11-18T01:22:20;7.30;91.80
20066;DHT22;10193;48.884;9.182;2023-11-18T01:24:47;7.30;91.80
20066;DHT22;10193;48.884;9.182;2023-11-18T01:27:13;7.30;91.80
20066;DHT22;10193;48.884;9.182;2023-11-18T01:29:40;7.40;91.90
20066;DHT22;10193;48.884;9.182;2023-11-18T01:32:07;7.40;92.00
20066;DHT22;10193;48.884;9.182;2023-11-18T01:34:35;7.50;92.10
20066;DHT22;10193;48.884;9.182;2023-11-18T01:37:03;7.50;92.10
20066;DHT22;10193;48.884;9.182;2023-11-18T01:39:34;7.60;92.10
20066;DHT22;10193;48.884;9.182;2023-11-18T01:42:01;7.60;92.10
20066;DHT22;10193;48.884;9.182;2023-11-18T01:44:28;7.70;92.20
20066;DHT22;10193;48.884;9.182;2023-11-18T01:46:55;7.70;92.20
20066;DHT22;10193;48.884;9.182;2023-11-18T01:49:23;7.70;92.20
20066;DHT22;10193;48.884;9.182;2023-11-18T01:51:50;7.80;92.20
20066;DHT22;10193;48.884;9.182;2023-11-18T01:54:18;7.80;92.10
20066;DHT22;10193;48.884;9.182;2023-11-18T01:56:47;7.80;92.00
20066;DHT22;10193;48.884;9.182;2023-11-18T01:59:14;7.90;91.90
20066;DHT22;10193;48.884;9.182;2023-11-18T02:01:46;7.90;91.80
20066;DHT22;10193;48.884;9.182;2023-11-18T02:04:13;7.90;91.80
20066;DHT22;10193;48.884;9.182;2023-11-18T02:06:40;7.90;91.70
20066;DHT22;10193;48.884;9.182;2023-11-18T02:09:07;7.90;91.60
20066;DHT22;10193;48.884;9.182;2023-11-18T02:11:37;8.00;91.60
20066;DHT22;10193;48.884;9.182;2023-11-18T02:14:13;8.00;91.60
20066;DHT22;10193;48.884;9.182;2023-11-18T02:16:43;8.00;91.70
20066;DHT22;10193;48.884;9.182;2023-11-18T02:19:18;8.00;91.70
20066;DHT22;10193;48.884;9.182;2023-11-18T02:21:46;8.00;91.70
20066;DHT22;10193;48.884;9.182;2023-11-18T02:24:24;8.00;91.60
20066;DHT22;10193;48.884;9.182;2023-11-18T02:26:53;8.00;91.50
20066;DHT22;10193;48.884;9.182;2023-11-18T02:29:20;8.00;91.50
20066;DHT22;10193;48.884;9.182;2023-11-18T02:31:50;8.00;91.50
20066;DHT22;10193;48.884;9.182;2023-11-18T02:34:23;8.10;91.60
20066;DHT22;10193;48.884;9.182;2023-11-18T02:36:53;8.10;91.70
20066;DHT22;10193;48.884;9.182;2023-11-18T02:39:29;8.10;91.70
20066;DHT22;10193;48.884;9.182;2023-11-18T02:42:01;8.10;91.50
20066;DHT22;10193;48.884;9.182;2023-11-18T02:44:30;8.10;91.20
20066;DHT22;10193;48.884;9.182;2023-11-18T02:46:58;8.10;91.00
20066;DHT22;10193;48.884;9.182;2023-11-18T02:49:25;8.10;90.70
20066;DHT22;10193;48.884;9.182;2023-11-18T02:51:51;8.00;90.40
20066;DHT22;10193;48.884;9.182;2023-11-18T02:54:18;8.00;90.30
20066;DHT22;10193;48.884;9.182;2023-11-18T02:56:45;8.00;90.40
20066;DHT22;10193;48.884;9.182;2023-11-18T02:59:13;8.00;90.40
20066;DHT22;10193;48.884;9.182;2023-11-18T03:01:40;7.90;90.40
20066;DHT22;10193;48.884;9.182;2023-11-18T03:04:06;7.90;90.40
20066;DHT22;10193;48.884;9.182;2023-11-18T03:06:34;7.80;90.50
20066;DHT22;10193;48.884;9.182;2023-11-18T03:09:01;7.80;90.70
20066;DHT22;10193;48.884;9.182;2023-11-18T03:11:28;7.80;90.80
20066;DHT22;10193;48.884;9.182;2023-11-18T03:13:55;7.80;91.00
20066;DHT22;10193;48.884;9.182;2023-11-18T03:16:23;7.80;91.10
20066;DHT22;10193;48.884;9.182;2023-11-18T03:18:51;7.80;91.00
20066;DHT22;10193;48.884;9.182;2023-11-18T03:21:18;7.80;91.00
20066;DHT22;10193;48.884;9.182;2023-11-18T03:23:45;7.80;90.90
20066;DHT22;10193;48.884;9.182;2023-11-18T03:26:12;7.80;90.80
20066;DHT22;10193;48.884;9.182;2023-11-18T03:28:40;7.80;90.90
20066;DHT22;10193;48.884;9.182;2023-11-18T03:31:07;7.70;90.90
20066;DHT22;10193;48.884;9.182;2023-11-18T03:33:36;7.70;91.00
20066;DHT22;10193;48.884;9.182;2023-11-18T03:36:03;7.80;91.10
20066;DHT22;10193;48.884;9.182;2023-11-18T03:38:30;7.80;91.00
20066;DHT22;10193;48.884;9.182;2023-11-18T03:40:56;7.70;90.90
20066;DHT22;10193;48.884;9.182;2023-11-18T03:43:24;7.70;90.90
20066;DHT22;10193;48.884;9.182;2023-11-18T03:45:51;7.70;90.90
20066;DHT22;10193;48.884;9.182;2023-11-18T03:48:22;7.70;90.90
20066;DHT22;10193;48.884;9.182;2023-11-18T03:50:50;7.70;91.00
20066;DHT22;10193;48.884;9.182;2023-11-18T03:53:16;7.70;91.10
20066;DHT22;10193;48.884;9.182;2023-11-18T03:55:43;7.70;91.20
20066;DHT22;10193;48.884;9.182;2023-11-18T03:58:10;7.70;91.30
20066;DHT22;10193;48.884;9.182;2023-11-18T04:00:37;7.70;91.40
20066;DHT22;10193;48.884;9.182;2023-11-18T04:03:03;7.80;91.50
20066;DHT22;10193;48.884;9.182;2023-11-18T04:05:32;7.70;91.50
20066;DHT22;10193;48.884;9.182;2023-11-18T04:08:01;7.80;91.60
20066;DHT22;10193;48.884;9.182;2023-11-18T04:10:28;7.80;91.70
20066;DHT22;10193;48.884;9.182;2023-11-18T04:12:54;7.80;91.70
20066;DHT22;10193;48.884;9.182;2023-11-18T04:15:22;7.90;91.80
20066;DHT22;10193;48.884;9.182;2023-11-18T04:17:49;7.90;91.80
20066;DHT22;10193;48.884;9.182;2023-11-18T04:20:17;7.90;91.80
20066;DHT22;10193;48.884;9.182;2023-11-18T04:22:44;7.90;91.80
20066;DHT22;10193;48.884;9.182;2023-11-18T04:25:13;7.90;91.70
20066;DHT22;10193;48.884;9.182;2023-11-18T04:27:40;7.90;91.50
20066;DHT22;10193;48.884;9.182;2023-11-18T04:30:08;8.00;91.50
20066;DHT22;10193;48.884;9.182;2023-11-18T04:32:35;8.00;91.40
20066;DHT22;10193;48.884;9.182;2023-11-18T04:35:02;8.00;91.30
20066;DHT22;10193;48.884;9.182;2023-11-18T04:37:32;8.00;91.20
20066;DHT22;10193;48.884;9.182;2023-11-18T04:39:59;8.00;91.00
20066;DHT22;10193;48.884;9.182;2023-11-18T04:42:27;8.00;90.80
20066;DHT22;10193;48.884;9.182;2023-11-18T04:49:06;7.90;90.50
20066;DHT22;10193;48.884;9.182;2023-11-18T05:12:12;7.40;89.90
20066;DHT22;10193;48.884;9.182;2023-11-18T05:33:25;7.10;90.10
20066;DHT22;10193;48.884;9.182;2023-11-18T05:43:48;6.90;90.30
20066;DHT22;10193;48.884;9.182;2023-11-18T06:11:56;6.80;90.20
20066;DHT22;10193;48.884;9.182;2023-11-18T06:14:56;6.70;90.00
20066;DHT22;10193;48.884;9.182;2023-11-18T06:24:59;6.70;90.10
20066;DHT22;10193;48.884;9.182;2023-11-18T06:27:52;6.60;90.00
20066;DHT22;10193;48.884;9.182;2023-11-18T06:30:19;6.60;90.00
20066;DHT22;10193;48.884;9.182;2023-11-18T06:32:47;6.60;90.10
20066;DHT22;10193;48.884;9.182;2023-11-18T06:35:13;6.60;90.30
20066;DHT22;10193;48.884;9.182;2023-11-18T06:37:40;6.60;90.40
20066;DHT22;10193;48.884;9.182;2023-11-18T06:40:09;6.60;90.50
20066;DHT22;10193;48.884;9.182;2023-11-18T06:42:41;6.60;90.50
20066;DHT22;10193;48.884;9.182;2023-11-18T06:45:10;6.60;90.50
20066;DHT22;10193;48.884;9.182;2023-11-18T06:47:38;6.60;90.50
20066;DHT22;10193;48.884;9.182;2023-11-18T06:50:08;6.60;90.40
20066;DHT22;10193;48.884;9.182;2023-11-18T06:52:36;6.60;90.30
20066;DHT22;10193;48.884;9.182;2023-11-18T06:55:04;6.60;90.30
20066;DHT22;10193;48.884;9.182;2023-11-18T06:57:31;6.60;90.30
20066;DHT22;10193;48.884;9.182;2023-11-18T06:59:57;6.60;90.40
20066;DHT22;10193;48.884;9.182;2023-11-18T07:02:25;6.60;90.50
20066;DHT22;10193;48.884;9.182;2023-11-18T07:04:52;6.60;90.50
20066;DHT22;10193;48.884;9.182;2023-11-18T07:07:19;6.60;90.60
20066;DHT22;10193;48.884;9.182;2023-11-18T07:09:45;6.60;90.70
20066;DHT22;10193;48.884;9.182;2023-11-18T07:12:12;6.60;91.10
20066;DHT22;10193;48.884;9.182;2023-11-18T07:14:39;6.60;90.90
20066;DHT22;10193;48.884;9.182;2023-11-18T07:17:06;6.70;91.00
20066;DHT22;10193;48.884;9.182;2023-11-18T07:19:35;6.70;91.20
20066;DHT22;10193;48.884;9.182;2023-11-18T07:22:02;6.70;91.30
20066;DHT22;10193;48.884;9.182;2023-11-18T07:24:32;6.80;91.50
20066;DHT22;10193;48.884;9.182;2023-11-18T07:26:58;6.80;91.60
20066;DHT22;10193;48.884;9.182;2023-11-18T07:29:26;6.90;91.70
20066;DHT22;10193;48.884;9.182;2023-11-18T07:31:53;6.90;91.80
20066;DHT22;10193;48.884;9.182;2023-11-18T07:34:20;6.90;91.90
20066;DHT22;10193;48.884;9.182;2023-11-18T07:36:50;7.00;92.00
20066;DHT22;10193;48.884;9.182;2023-11-18T07:39:17;7.10;92.10
20066;DHT22;10193;48.884;9.182;2023-11-18T07:42:01;7.10;92.20
20066;DHT22;10193;48.884;9.182;2023-11-18T07:44:30;7.20;92.20
20066;DHT22;10193;48.884;9.182;2023-11-18T07:46:58;7.30;92.30
20066;DHT22;10193;48.884;9.182;2023-11-18T07:49:25;7.30;92.40
20066;DHT22;10193;48.884;9.182;2023-11-18T07:51:53;7.40;92.50
20066;DHT22;10193;48.884;9.182;2023-11-18T07:54:19;7.40;92.50
20066;DHT22;10193;48.884;9.182;2023-11-18T07:56:46;7.50;92.60
20066;DHT22;10193;48.884;9.182;2023-11-18T07:59:13;7.60;92.70
20066;DHT22;10193;48.884;9.182;2023-11-18T08:01:41;7.60;92.80
20066;DHT22;10193;48.884;9.182;2023-11-18T08:04:09;7.70;92.80
20066;DHT22;10193;48.884;9.182;2023-11-18T08:06:36;7.70;92.80
20066;DHT22;10193;48.884;9.182;2023-11-18T08:09:04;7.80;92.70
20066;DHT22;10193;48.884;9.182;2023-11-18T08:11:35;7.80;92.70
20066;DHT22;10193;48.884;9.182;2023-11-18T08:14:02;7.90;92.70
20066;DHT22;10193;48.884;9.182;2023-11-18T08:16:29;7.90;92.70
20066;DHT22;10193;48.884;9.182;2023-11-18T08:18:55;8.00;92.80
20066;DHT22;10193;48.884;9.182;2023-11-18T08:21:22;8.00;92.80
20066;DHT22;10193;48.884;9.182;2023-11-18T08:23:49;8.10;92.80
20066;DHT22;10193;48.884;9.182;2023-11-18T08:26:17;8.10;92.90
20066;DHT22;10193;48.884;9.182;2023-11-18T08:28:43;8.20;92.90
20066;DHT22;10193;48.884;9.182;2023-11-18T08:31:13;8.20;93.00
20066;DHT22;10193;48.884;9.182;2023-11-18T08:33:41;8.30;93.00
20066;DHT22;10193;48.884;9.182;2023-11-18T08:36:08;8.30;93.00
20066;DHT22;10193;48.884;9.182;2023-11-18T08:38:38;8.40;93.10
20066;DHT22;10193;48.884;9.182;2023-11-18T08:41:05;8.50;93.10
20066;DHT22;10193;48.884;9.182;2023-11-18T08:43:35;8.50;93.00
20066;DHT22;10193;48.884;9.182;2023-11-18T08:46:02;8.50;92.90
20066;DHT22;10193;48.884;9.182;2023-11-18T08:48:29;8.60;92.90
20066;DHT22;10193;48.884;9.182;2023-11-18T08:50:57;8.70;92.90
20066;DHT22;10193;48.884;9.182;2023-11-18T08:53:23;8.70;93.00
20066;DHT22;10193;48.884;9.182;2023-11-18T08:55:51;8.70;93.00
20066;DHT22;10193;48.884;9.182;2023-11-18T08:58:19;8.80;93.10
20066;DHT22;10193;48.884;9.182;2023-11-18T09:00:50;8.80;93.10
20066;DHT22;10193;48.884;9.182;2023-11-18T09:03:20;8.90;93.00
20066;DHT22;10193;48.884;9.182;2023-11-18T09:06:01;8.90;93.10
20066;DHT22;10193;48.884;9.182;2023-11-18T09:08:33;9.00;93.10
20066;DHT22;10193;48.884;9.182;2023-11-18T09:11:02;9.00;92.90
20066;DHT22;10193;48.884;9.182;2023-11-18T09:13:31;9.00;92.80
20066;DHT22;10193;48.884;9.182;2023-11-18T09:16:02;9.10;92.80
20066;DHT22;10193;48.884;9.182;2023-11-18T09:18:30;9.10;92.70
20066;DHT22;10193;48.884;9.182;2023-11-18T09:20:58;9.10;92.80
20066;DHT22;10193;48.884;9.182;2023-11-18T09:23:27;9.20;92.90
20066;DHT22;10193;48.884;9.182;2023-11-18T09:25:54;9.20;93.10
20066;DHT22;10193;48.884;9.182;2023-11-18T09:28:21;9.20;93.20
20066;DHT22;10193;48.884;9.182;2023-11-18T09:30:50;9.30;93.40
20066;DHT22;10193;48.884;9.182;2023-11-18T09:33:21;9.40;93.70
20066;DHT22;10193;48.884;9.182;2023-11-18T09:35:58;9.40;93.80
20066;DHT22;10193;48.884;9.182;2023-11-18T09:38:28;9.50;94.10
20066;DHT22;10193;48.884;9.182;2023-11-18T09:40:56;9.50;94.20
20066;DHT22;10193;48.884;9.182;2023-11-18T09:43:24;9.60;94.30
20066;DHT22;10193;48.884;9.182;2023-11-18T09:45:54;9.70;94.40
20066;DHT22;10193;48.884;9.182;2023-11-18T09:48:23;9.80;94.40
20066;DHT22;10193;48.884;9.182;2023-11-18T09:50:52;9.90;94.50
20066;DHT22;10193;48.884;9.182;2023-11-18T09:53:19;10.00;94.00
20066;DHT22;10193;48.884;9.182;2023-11-18T09:56:03;10.10;94.00
20066;DHT22;10193;48.884;9.182;2023-11-18T09:58:48;10.20;93.50
20066;DHT22;10193;48.884;9.182;2023-11-18T10:01:18;10.20;93.80
20066;DHT22;10193;48.884;9.182;2023-11-18T10:03:49;10.40;94.00
20066;DHT22;10193;48.884;9.182;2023-11-18T10:06:17;10.40;94.10
20066;DHT22;10193;48.884;9.182;2023-11-18T10:08:44;10.50;93.90
20066;DHT22;10193;48.884;9.182;2023-11-18T10:11:12;10.60;93.90
20066;DHT22;10193;48.884;9.182;2023-11-18T10:13:40;10.70;93.90
20066;DHT22;10193;48.884;9.182;2023-11-18T10:16:09;10.70;93.80
20066;DHT22;10193;48.884;9.182;2023-11-18T10:18:38;10.80;93.70
20066;DHT22;10193;48.884;9.182;2023-11-18T10:21:15;10.90;93.40
20066;DHT22;10193;48.884;9.182;2023-11-18T10:23:58;10.90;93.20
20066;DHT22;10193;48.884;9.182;2023-11-18T10:26:27;11.00;92.60
20066;DHT22;10193;48.884;9.182;2023-11-18T10:28:55;11.10;93.10
20066;DHT22;10193;48.884;9.182;2023-11-18T10:31:32;11.10;93.00
20066;DHT22;10193;48.884;9.182;2023-11-18T10:34:01;11.10;92.70
20066;DHT22;10193;48.884;9.182;2023-11-18T10:36:30;11.20;92.60
20066;DHT22;10193;48.884;9.182;2023-11-18T10:38:58;11.20;92.40
20066;DHT22;10193;48.884;9.182;2023-11-18T10:41:29;11.20;92.40
20066;DHT22;10193;48.884;9.182;2023-11-18T10:44:05;11.20;92.50
20066;DHT22;10193;48.884;9.182;2023-11-18T10:46:32;11.20;92.20
20066;DHT22;10193;48.884;9.182;2023-11-18T10:49:00;11.30;92.70
20066;DHT22;10193;48.884;9.182;2023-11-18T10:51:28;11.30;92.60
20066;DHT22;10193;48.884;9.182;2023-11-18T10:54:00;11.30;92.60
20066;DHT22;10193;48.884;9.182;2023-11-18T10:56:29;11.40;92.50
20066;DHT22;10193;48.884;9.182;2023-11-18T10:58:57;11.40;92.50
20066;DHT22;10193;48.884;9.182;2023-11-18T11:01:28;11.40;92.60
20066;DHT22;10193;48.884;9.182;2023-11-18T11:03:55;11.40;92.20
20066;DHT22;10193;48.884;9.182;2023-11-18T11:06:24;11.50;92.30
20066;DHT22;10193;48.884;9.182;2023-11-18T11:08:52;11.50;92.20
20066;DHT22;10193;48.884;9.182;2023-11-18T11:11:22;11.50;92.10
20066;DHT22;10193;48.884;9.182;2023-11-18T11:13:55;11.50;92.00
20066;DHT22;10193;48.884;9.182;2023-11-18T11:16:26;11.50;92.00
20066;DHT22;10193;48.884;9.182;2023-11-18T11:19:02;11.50;91.90
20066;DHT22;10193;48.884;9.182;2023-11-18T11:21:37;11.50;91.80
20066;DHT22;10193;48.884;9.182;2023-11-18T11:24:12;11.50;91.80
20066;DHT22;10193;48.884;9.182;2023-11-18T11:26:54;11.50;91.70
20066;DHT22;10193;48.884;9.182;2023-11-18T11:29:25;11.50;91.60
20066;DHT22;10193;48.884;9.182;2023-11-18T11:32:00;11.50;91.80
20066;DHT22;10193;48.884;9.182;2023-11-18T11:34:29;11.50;91.70
20066;DHT22;10193;48.884;9.182;2023-11-18T11:36:59;11.60;91.90
20066;DHT22;10193;48.884;9.182;2023-11-18T11:39:27;11.60;91.70
20066;DHT22;10193;48.884;9.182;2023-11-18T11:41:57;11.60;91.90
20066;DHT22;10193;48.884;9.182;2023-11-18T11:44:24;11.60;91.90
20066;DHT22;10193;48.884;9.182;2023-11-18T11:46:55;11.50;91.90
20066;DHT22;10193;48.884;9.182;2023-11-18T11:49:26;11.60;91.90
20066;DHT22;10193;48.884;9.182;2023-11-18T11:51:59;11.60;91.90
20066;DHT22;10193;48.884;9.182;2023-11-18T11:54:34;11.60;91.70
20066;DHT22;10193;48.884;9.182;2023-11-18T11:57:05;11.60;91.60
20066;DHT22;10193;48.884;9.182;2023-11-18T11:59:35;11.60;91.70
20066;DHT22;10193;48.884;9.182;2023-11-18T12:02:03;11.60;91.60
20066;DHT22;10193;48.884;9.182;2023-11-18T12:04:33;11.60;91.80
20066;DHT22;10193;48.884;9.182;2023-11-18T12:07:04;11.60;91.80
20066;DHT22;10193;48.884;9.182;2023-11-18T12:09:31;11.60;91.80
20066;DHT22;10193;48.884;9.182;2023-11-18T12:12:05;11.60;91.90
20066;DHT22;10193;48.884;9.182;2023-11-18T12:14:49;11.60;91.90
20066;DHT22;10193;48.884;9.182;2023-11-18T12:17:17;11.60;91.60
20066;DHT22;10193;48.884;9.182;2023-11-18T12:19:48;11.70;91.90
20066;DHT22;10193;48.884;9.182;2023-11-18T12:22:17;11.70;91.70
20066;DHT22;10193;48.884;9.182;2023-11-18T12:28:07;11.60;90.50
20066;DHT22;10193;48.884;9.182;2023-11-18T12:30:38;11.60;90.90
20066;DHT22;10193;48.884;9.182;2023-11-18T12:33:09;11.60;91.20
20066;DHT22;10193;48.884;9.182;2023-11-18T12:35:51;11.60;91.50
20066;DHT22;10193;48.884;9.182;2023-11-18T12:38:49;11.60;91.40
20066;DHT22;10193;48.884;9.182;2023-11-18T12:41:33;11.60;90.90
20066;DHT22;10193;48.884;9.182;2023-11-18T12:44:14;11.60;91.10
20066;DHT22;10193;48.884;9.182;2023-11-18T12:46:49;11.60;91.00
20066;DHT22;10193;48.884;9.182;2023-11-18T12:49:19;11.60;91.20
20066;DHT22;10193;48.884;9.182;2023-11-18T12:51:49;11.70;91.60
20066;DHT22;10193;48.884;9.182;2023-11-18T12:54:17;11.70;91.50
20066;DHT22;10193;48.884;9.182;2023-11-18T12:56:44;11.70;91.40
20066;DHT22;10193;48.884;9.182;2023-11-18T12:59:15;11.60;91.20
20066;DHT22;10193;48.884;9.182;2023-11-18T13:01:44;11.60;91.00
20066;DHT22;10193;48.884;9.182;2023-11-18T13:04:17;11.70;91.10
20066;DHT22;10193;48.884;9.182;2023-11-18T13:06:46;11.70;91.00
20066;DHT22;10193;48.884;9.182;2023-11-18T13:09:14;11.60;90.90
20066;DHT22;10193;48.884;9.182;2023-11-18T13:11:52;11.60;90.80
20066;DHT22;10193;48.884;9.182;2023-11-18T13:14:23;11.60;90.80
20066;DHT22;10193;48.884;9.182;2023-11-18T13:16:52;11.60;90.80
20066;DHT22;10193;48.884;9.182;2023-11-18T13:19:25;11.60;90.90
20066;DHT22;10193;48.884;9.182;2023-11-18T13:21:56;11.50;90.50
20066;DHT22;10193;48.884;9.182;2023-11-18T13:24:24;11.50;90.70
20066;DHT22;10193;48.884;9.182;2023-11-18T13:26:53;11.50;90.70
20066;DHT22;10193;48.884;9.182;2023-11-18T13:29:20;11.50;90.80
20066;DHT22;10193;48.884;9.182;2023-11-18T13:31:49;11.50;90.80
20066;DHT22;10193;48.884;9.182;2023-11-18T13:34:16;11.50;90.70
20066;DHT22;10193;48.884;9.182;2023-11-18T13:36:43;11.40;90.70
20066;DHT22;10193;48.884;9.182;2023-11-18T13:39:15;11.50;90.70
20066;DHT22;10193;48.884;9.182;2023-11-18T13:41:42;11.40;90.40
20066;DHT22;10193;48.884;9.182;2023-11-18T13:44:10;11.50;90.70
20066;DHT22;10193;48.884;9.182;2023-11-18T13:46:38;11.40;90.70
20066;DHT22;10193;48.884;9.182;2023-11-18T13:49:07;11.40;90.80
20066;DHT22;10193;48.884;9.182;2023-11-18T13:51:34;11.40;90.80
20066;DHT22;10193;48.884;9.182;2023-11-18T13:54:02;11.40;90.90
20066;DHT22;10193;48.884;9.182;2023-11-18T13:56:30;11.40;91.00
20066;DHT22;10193;48.884;9.182;2023-11-18T13:58:57;11.40;90.90
20066;DHT22;10193;48.884;9.182;2023-11-18T14:01:25;11.40;91.00
20066;DHT22;10193;48.884;9.182;2023-11-18T14:03:53;11.40;91.00
20066;DHT22;10193;48.884;9.182;2023-11-18T14:06:22;11.40;91.00
20066;DHT22;10193;48.884;9.182;2023-11-18T14:08:49;11.40;90.90
20066;DHT22;10193;48.884;9.182;2023-11-18T14:11:16;11.40;91.10
20066;DHT22;10193;48.884;9.182;2023-11-18T14:13:43;11.40;91.00
20066;DHT22;10193;48.884;9.182;2023-11-18T14:16:10;11.40;91.00
20066;DHT22;10193;48.884;9.182;2023-11-18T14:18:37;11.40;91.00
20066;DHT22;10193;48.884;9.182;2023-11-18T14:21:06;11.40;91.00
20066;DHT22;10193;48.884;9.182;2023-11-18T14:23:35;11.30;91.00
20066;DHT22;10193;48.884;9.182;2023-11-18T14:26:03;11.30;90.80
20066;DHT22;10193;48.884;9.182;2023-11-18T14:28:30;11.30;90.80
20066;DHT22;10193;48.884;9.182;2023-11-18T14:30:56;11.30;90.80
20066;DHT22;10193;48.884;9.182;2023-11-18T14:33:23;11.30;90.70
20066;DHT22;10193;48.884;9.182;2023-11-18T14:35:50;11.30;90.80
20066;DHT22;10193;48.884;9.182;2023-11-18T14:38:18;11.20;90.70
20066;DHT22;10193;48.884;9.182;2023-11-18T14:40:47;11.20;90.60
20066;DHT22;10193;48.884;9.182;2023-11-18T14:43:14;11.20;90.60
20066;DHT22;10193;48.884;9.182;2023-11-18T14:45:41;11.20;90.60
20066;DHT22;10193;48.884;9.182;2023-11-18T14:48:08;11.20;90.60
20066;DHT22;10193;48.884;9.182;2023-11-18T14:50:35;11.20;90.60
20066;DHT22;10193;48.884;9.182;2023-11-18T14:53:04;11.20;90.60
20066;DHT22;10193;48.884;9.182;2023-11-18T14:55:31;11.10;90.50
20066;DHT22;10193;48.884;9.182;2023-11-18T14:57:59;11.10;90.50
20066;DHT22;10193;48.884;9.182;2023-11-18T15:00:26;11.10;90.50
20066;DHT22;10193;48.884;9.182;2023-11-18T15:02:57;11.10;90.50
20066;DHT22;10193;48.884;9.182;2023-11-18T15:05:24;11.10;90.50
20066;DHT22;10193;48.884;9.182;2023-11-18T15:07:53;11.10;90.50
20066;DHT22;10193;48.884;9.182;2023-11-18T15:10:21;11.10;90.50
20066;DHT22;10193;48.884;9.182;2023-11-18T15:12:48;11.10;90.50
20066;DHT22;10193;48.884;9.182;2023-11-18T15:15:20;11.10;90.60
20066;DHT22;10193;48.884;9.182;2023-11-18T15:17:47;11.00;90.50
20066;DHT22;10193;48.884;9.182;2023-11-18T15:20:15;10.90;90.60
20066;DHT22;10193;48.884;9.182;2023-11-18T15:22:44;11.00;90.60
20066;DHT22;10193;48.884;9.182;2023-11-18T15:25:11;11.00;90.60
20066;DHT22;10193;48.884;9.182;2023-11-18T15:27:42;11.00;90.70
20066;DHT22;10193;48.884;9.182;2023-11-18T15:30:10;11.00;90.60
20066;DHT22;10193;48.884;9.182;2023-11-18T15:32:39;10.90;90.60
20066;DHT22;10193;48.884;9.182;2023-11-18T15:35:08;10.90;90.50
20066;DHT22;10193;48.884;9.182;2023-11-18T15:37:36;10.90;90.60
20066;DHT22;10193;48.884;9.182;2023-11-18T15:40:05;10.90;90.70
20066;DHT22;10193;48.884;9.182;2023-11-18T15:42:35;10.90;90.70
20066;DHT22;10193;48.884;9.182;2023-11-18T15:45:03;10.90;90.70
20066;DHT22;10193;48.884;9.182;2023-11-18T15:47:30;10.90;90.70
20066;DHT22;10193;48.884;9.182;2023-11-18T15:49:58;10.80;90.60
20066;DHT22;10193;48.884;9.182;2023-11-18T15:52:25;10.80;90.70
20066;DHT22;10193;48.884;9.182;2023-11-18T15:54:53;10.80;90.70
20066;DHT22;10193;48.884;9.182;2023-11-18T15:57:20;10.80;90.70
20066;DHT22;10193;48.884;9.182;2023-11-18T15:59:47;10.80;90.80
20066;DHT22;10193;48.884;9.182;2023-11-18T16:02:14;10.80;90.80
20066;DHT22;10193;48.884;9.182;2023-11-18T16:04:41;10.80;91.10
20066;DHT22;10193;48.884;9.182;2023-11-18T16:07:09;10.90;90.80
20066;DHT22;10193;48.884;9.182;2023-11-18T16:09:36;10.80;90.70
20066;DHT22;10193;48.884;9.182;2023-11-18T16:12:03;10.80;90.80
20066;DHT22;10193;48.884;9.182;2023-11-18T16:14:30;10.80;90.80
20066;DHT22;10193;48.884;9.182;2023-11-18T16:16:57;10.80;90.80
20066;DHT22;10193;48.884;9.182;2023-11-18T16:19:23;10.80;90.70
20066;DHT22;10193;48.884;9.182;2023-11-18T16:21:50;10.80;90.70
20066;DHT22;10193;48.884;9.182;2023-11-18T16:24:20;10.80;90.60
20066;DHT22;10193;48.884;9.182;2023-11-18T16:26:46;10.70;90.60
20066;DHT22;10193;48.884;9.182;2023-11-18T16:29:13;10.80;90.70
20066;DHT22;10193;48.884;9.182;2023-11-18T16:31:40;10.70;90.60
20066;DHT22;10193;48.884;9.182;2023-11-18T16:34:07;10.70;90.60
20066;DHT22;10193;48.884;9.182;2023-11-18T16:36:34;10.70;90.50
20066;DHT22;10193;48.884;9.182;2023-11-18T16:39:00;10.70;90.50
20066;DHT22;10193;48.884;9.182;2023-11-18T16:41:28;10.70;90.60
20066;DHT22;10193;48.884;9.182;2023-11-18T16:43:56;10.70;90.50
20066;DHT22;10193;48.884;9.182;2023-11-18T16:46:23;10.70;90.50
20066;DHT22;10193;48.884;9.182;2023-11-18T16:48:50;10.70;90.50
20066;DHT22;10193;48.884;9.182;2023-11-18T16:51:16;10.70;90.50
20066;DHT22;10193;48.884;9.182;2023-11-18T16:53:43;10.70;90.50
20066;DHT22;10193;48.884;9.182;2023-11-18T16:56:10;10.70;90.50
20066;DHT22;10193;48.884;9.182;2023-11-18T16:58:38;10.70;90.50
20066;DHT22;10193;48.884;9.182;2023-11-18T17:01:05;10.60;90.40
20066;DHT22;10193;48.884;9.182;2023-11-18T17:03:34;10.60;90.50
20066;DHT22;10193;48.884;9.182;2023-11-18T17:06:01;10.60;90.40
20066;DHT22;10193;48.884;9.182;2023-11-18T17:08:29;10.60;90.40
20066;DHT22;10193;48.884;9.182;2023-11-18T17:10:55;10.60;90.50
20066;DHT22;10193;48.884;9.182;2023-11-18T17:13:23;10.60;90.60
20066;DHT22;10193;48.884;9.182;2023-11-18T17:15:52;10.60;90.50
20066;DHT22;10193;48.884;9.182;2023-11-18T17:18:19;10.60;90.50